Time;durP1;ratioP1;P1;durP2;ratioP2;P2;SDS_P1;SDS_P2;PMS_P1;PMS_P2;Temp;Humidity;BMP_temperature;BMP_pressure;BME280_temperature;BME280_humidity;BME280_pressure;Samples;Min_cycle;Max_cycle;Signal;HPM_P1;HPM_P2
2022/04/12 00:04:14;;;;;;;9.10;2.38;;;;;;;;;;10452329;28;20025;-44
2022/04/12 00:09:14;;;;;;;5.75;2.60;;;;;;;;;;10451026;28;20033;-44
2022/04/12 00:14:15;;;;;;;7.47;2.50;;;;;;;;;;10451889;28;20039;-45
2022/04/12 00:19:15;;;;;;;11.48;3.00;;;;;;;;;;10452729;28;20025;-43
2022/04/12 00:24:16;;;;;;;4.55;2.65;;;;;;;;;;10416860;28;20025;-45
2022/04/12 00:29:17;;;;;;;6.35;2.60;;;;;;;;;;10411905;28;20029;-44
2022/04/12 00:34:17;;;;;;;5.22;2.30;;;;;;;;;;10427199;28;20045;-44
2022/04/12 00:39:18;;;;;;;4.20;2.30;;;;;;;;;;10438735;28;20036;-45
2022/04/12 00:44:18;;;;;;;7.30;2.92;;;;;;;;;;10440040;28;20036;-43
2022/04/12 00:49:19;;;;;;;5.72;2.38;;;;;;;;;;10450856;28;20038;-44
2022/04/12 00:54:23;;;;;;;4.40;2.60;;;;;;;;;;10429598;28;20033;-44
2022/04/12 00:59:24;;;;;;;7.90;2.83;;;;;;;;;;10450692;28;20028;-44
2022/04/12 01:04:25;;;;;;;2.67;2.30;;;;;;;;;;10438625;28;20113;-44
2022/04/12 01:09:26;;;;;;;4.57;2.03;;;;;;;;;;10435819;28;20021;-45
2022/04/12 01:14:27;;;;;;;5.78;2.58;;;;;;;;;;10449389;28;20056;-45
2022/04/12 01:19:27;;;;;;;6.97;2.65;;;;;;;;;;10450065;28;20468;-44
2022/04/12 01:24:29;;;;;;;4.18;2.20;;;;;;;;;;10437365;28;20037;-45
2022/04/12 01:29:35;;;;;;;4.28;2.50;;;;;;;;;;10448397;28;20448;-45
2022/04/12 01:34:36;;;;;;;3.90;2.45;;;;;;;;;;10445952;28;20056;-47
2022/04/12 01:39:37;;;;;;;3.42;1.80;;;;;;;;;;10447734;28;20111;-43
2022/04/12 01:44:37;;;;;;;4.72;2.40;;;;;;;;;;10437480;28;20049;-43
2022/04/12 01:49:38;;;;;;;6.57;2.42;;;;;;;;;;10413117;28;20026;-44
2022/04/12 01:54:39;;;;;;;3.95;2.20;;;;;;;;;;10416810;28;20036;-45
2022/04/12 01:59:40;;;;;;;6.43;2.58;;;;;;;;;;10417993;28;20037;-43
2022/04/12 02:04:41;;;;;;;4.22;2.40;;;;;;;;;;10418163;28;20028;-44
2022/04/12 02:09:41;;;;;;;5.40;2.20;;;;;;;;;;10416203;28;20041;-45
2022/04/12 02:14:42;;;;;;;4.40;2.30;;;;;;;;;;10416504;28;20396;-48
2022/04/12 02:19:42;;;;;;;4.13;2.30;;;;;;;;;;10439905;28;20047;-44
2022/04/12 02:24:43;;;;;;;4.15;2.15;;;;;;;;;;10454780;28;20032;-47
2022/04/12 02:29:44;;;;;;;6.07;2.22;;;;;;;;;;10470157;28;20029;-46
2022/04/12 02:34:44;;;;;;;3.55;2.42;;;;;;;;;;10455996;28;20056;-45
2022/04/12 02:39:45;;;;;;;2.25;1.90;;;;;;;;;;10455104;28;20107;-43
2022/04/12 02:44:46;;;;;;;3.65;2.03;;;;;;;;;;10453210;28;20025;-44
2022/04/12 02:49:46;;;;;;;5.82;2.38;;;;;;;;;;10455893;28;20021;-47
2022/04/12 02:54:47;;;;;;;4.07;2.40;;;;;;;;;;10426736;28;20033;-44
2022/04/12 02:59:47;;;;;;;3.55;2.15;;;;;;;;;;10414591;28;20091;-45
2022/04/12 03:04:48;;;;;;;3.80;1.90;;;;;;;;;;10439251;28;20468;-46
2022/04/12 03:09:49;;;;;;;3.95;2.10;;;;;;;;;;10454858;28;20392;-44
2022/04/12 03:14:50;;;;;;;2.80;2.03;;;;;;;;;;10451700;28;20041;-44
2022/04/12 03:19:51;;;;;;;3.15;1.70;;;;;;;;;;10454540;28;20028;-46
2022/04/12 03:24:51;;;;;;;3.45;2.08;;;;;;;;;;10448133;28;20040;-45
2022/04/12 03:29:52;;;;;;;3.30;2.22;;;;;;;;;;10413042;28;20068;-47
2022/04/12 03:34:52;;;;;;;4.25;1.92;;;;;;;;;;10433523;28;20052;-47
2022/04/12 03:39:53;;;;;;;4.95;2.28;;;;;;;;;;10453855;28;20101;-46
2022/04/12 03:44:54;;;;;;;2.72;1.90;;;;;;;;;;10431985;28;20103;-44
2022/04/12 03:49:54;;;;;;;2.85;2.08;;;;;;;;;;10412329;28;20061;-41
2022/04/12 03:54:55;;;;;;;1.63;1.52;;;;;;;;;;10412777;28;20072;-43
2022/04/12 03:59:55;;;;;;;3.00;1.75;;;;;;;;;;10411694;28;20036;-44
2022/04/12 04:04:56;;;;;;;3.83;1.85;;;;;;;;;;10447106;28;20036;-46
2022/04/12 04:09:56;;;;;;;4.20;2.20;;;;;;;;;;10450867;28;20033;-44
2022/04/12 04:14:57;;;;;;;2.92;1.73;;;;;;;;;;10419057;28;20037;-46
2022/04/12 04:19:58;;;;;;;3.28;2.25;;;;;;;;;;10411081;28;20041;-45
2022/04/12 04:24:58;;;;;;;3.35;2.00;;;;;;;;;;10435939;28;20041;-45
2022/04/12 04:29:59;;;;;;;2.67;2.05;;;;;;;;;;10451658;28;20024;-44
2022/04/12 04:34:59;;;;;;;3.20;1.83;;;;;;;;;;10444565;28;20278;-42
2022/04/12 04:40:00;;;;;;;4.35;2.00;;;;;;;;;;10412246;28;20210;-45
2022/04/12 04:45:00;;;;;;;2.97;2.00;;;;;;;;;;10412218;28;20037;-43
2022/04/12 04:50:01;;;;;;;2.92;2.00;;;;;;;;;;10428067;28;20025;-44
2022/04/12 04:55:02;;;;;;;3.65;2.00;;;;;;;;;;10425338;28;20036;-43
2022/04/12 05:00:05;;;;;;;6.60;1.80;;;;;;;;;;10411237;28;20022;-44
2022/04/12 05:05:07;;;;;;;2.45;1.70;;;;;;;;;;10415024;28;20033;-44
2022/04/12 05:10:12;;;;;;;3.15;1.83;;;;;;;;;;10413317;28;20029;-43
2022/04/12 05:15:13;;;;;;;3.97;2.20;;;;;;;;;;10411614;28;20255;-44
2022/04/12 05:20:14;;;;;;;1.85;1.75;;;;;;;;;;10422182;28;20614;-45
2022/04/12 05:25:15;;;;;;;4.60;1.88;;;;;;;;;;10412387;28;20075;-44
2022/04/12 05:30:16;;;;;;;2.95;1.90;;;;;;;;;;10413345;28;20456;-39
2022/04/12 05:35:17;;;;;;;3.35;2.08;;;;;;;;;;10413649;28;20060;-44
2022/04/12 05:40:21;;;;;;;3.40;2.15;;;;;;;;;;10436562;28;20041;-44
2022/04/12 05:45:22;;;;;;;2.67;1.90;;;;;;;;;;10438357;28;20029;-47
2022/04/12 05:50:25;;;;;;;2.35;1.70;;;;;;;;;;10413473;28;20488;-44
2022/04/12 05:55:26;;;;;;;5.10;2.35;;;;;;;;;;10429918;28;20037;-47
2022/04/12 06:00:30;;;;;;;4.93;1.80;;;;;;;;;;10408888;28;20049;-50
2022/04/12 06:05:32;;;;;;;8.35;1.85;;;;;;;;;;10427250;28;20035;-46
2022/04/12 06:10:32;;;;;;;12.75;2.00;;;;;;;;;;10417065;28;20033;-50
2022/04/12 06:15:33;;;;;;;8.80;2.25;;;;;;;;;;10431345;28;20044;-44
2022/04/12 06:20:34;;;;;;;12.45;2.05;;;;;;;;;;10467108;28;20025;-47
2022/04/12 06:25:34;;;;;;;21.45;2.60;;;;;;;;;;10417651;28;20509;-48
2022/04/12 06:30:35;;;;;;;9.02;2.40;;;;;;;;;;10445750;28;20028;-44
2022/04/12 06:35:35;;;;;;;14.10;2.53;;;;;;;;;;10479064;28;20037;-44
2022/04/12 06:40:36;;;;;;;11.00;2.15;;;;;;;;;;10456024;28;20377;-41
2022/04/12 06:45:38;;;;;;;9.90;2.20;;;;;;;;;;10496853;28;20426;-42
2022/04/12 06:50:39;;;;;;;6.30;2.25;;;;;;;;;;10496734;28;20501;-41
2022/04/12 06:55:39;;;;;;;10.10;2.40;;;;;;;;;;10496802;28;20438;-43
2022/04/12 07:00:40;;;;;;;6.60;2.33;;;;;;;;;;10496325;28;20055;-42
2022/04/12 07:05:41;;;;;;;6.15;2.20;;;;;;;;;;10496380;28;20115;-41
2022/04/12 07:10:43;;;;;;;8.05;2.25;;;;;;;;;;10496630;28;20464;-41
2022/04/12 07:15:46;;;;;;;5.47;2.30;;;;;;;;;;10495774;28;20116;-42
2022/04/12 07:20:48;;;;;;;6.57;2.10;;;;;;;;;;10495746;28;20040;-42
2022/04/12 07:25:49;;;;;;;7.25;2.40;;;;;;;;;;10494139;28;20079;-41
2022/04/12 07:30:49;;;;;;;6.85;1.90;;;;;;;;;;10495065;28;20028;-42
2022/04/12 07:35:50;;;;;;;3.90;1.90;;;;;;;;;;10495187;28;20025;-44
2022/04/12 07:40:51;;;;;;;6.35;2.30;;;;;;;;;;10494947;28;20044;-41
2022/04/12 07:45:52;;;;;;;4.85;2.00;;;;;;;;;;10494549;28;20523;-44
2022/04/12 07:50:52;;;;;;;4.03;1.92;;;;;;;;;;10494592;28;20054;-44
2022/04/12 07:55:53;;;;;;;5.13;1.85;;;;;;;;;;10486849;28;20388;-43
2022/04/12 08:00:54;;;;;;;5.53;1.95;;;;;;;;;;10420811;28;20091;-44
2022/04/12 08:05:56;;;;;;;8.77;1.90;;;;;;;;;;10452652;28;20029;-43
2022/04/12 08:10:56;;;;;;;7.47;2.10;;;;;;;;;;10452551;28;20025;-44
2022/04/12 08:15:57;;;;;;;3.40;1.85;;;;;;;;;;10451950;28;20420;-47
2022/04/12 08:20:58;;;;;;;8.10;1.80;;;;;;;;;;10452242;28;20024;-41
2022/04/12 08:25:58;;;;;;;4.15;1.75;;;;;;;;;;10451713;28;20025;-43
2022/04/12 08:30:59;;;;;;;3.92;1.65;;;;;;;;;;10451316;28;20049;-43
2022/04/12 08:35:59;;;;;;;3.60;1.48;;;;;;;;;;10451425;28;20032;-41
2022/04/12 08:41:02;;;;;;;8.35;1.65;;;;;;;;;;10455877;28;20103;-42
2022/04/12 08:46:03;;;;;;;7.95;1.83;;;;;;;;;;10490996;28;20033;-42
2022/04/12 08:51:05;;;;;;;3.85;1.80;;;;;;;;;;10491989;28;20456;-42
2022/04/12 08:56:05;;;;;;;3.95;1.73;;;;;;;;;;10490419;28;20230;-42
2022/04/12 09:01:07;;;;;;;9.60;1.80;;;;;;;;;;10491202;28;20050;-41
2022/04/12 09:06:10;;;;;;;3.80;1.90;;;;;;;;;;10491468;28;20043;-44
2022/04/12 09:11:14;;;;;;;2.85;1.90;;;;;;;;;;10491936;28;20024;-45
2022/04/12 09:16:15;;;;;;;7.20;2.10;;;;;;;;;;10491014;28;20103;-41
2022/04/12 09:21:19;;;;;;;5.80;2.00;;;;;;;;;;10491545;28;20024;-44
2022/04/12 09:26:23;;;;;;;5.28;2.00;;;;;;;;;;10490054;28;20056;-43
2022/04/12 09:31:24;;;;;;;3.28;1.92;;;;;;;;;;10461443;28;20500;-42
2022/04/12 09:36:25;;;;;;;5.05;2.20;;;;;;;;;;10448012;28;20180;-44
2022/04/12 09:41:27;;;;;;;3.45;1.90;;;;;;;;;;10444203;28;20029;-44
2022/04/12 09:46:27;;;;;;;4.32;1.67;;;;;;;;;;10417847;28;20030;-43
2022/04/12 09:51:28;;;;;;;4.95;2.03;;;;;;;;;;10408773;28;20033;-41
2022/04/12 09:56:30;;;;;;;5.68;1.92;;;;;;;;;;10407910;28;20036;-42
2022/04/12 10:01:33;;;;;;;3.67;2.13;;;;;;;;;;10406201;28;21216;-41
2022/04/12 10:06:42;;;;;;;4.20;2.13;;;;;;;;;;10405530;28;20025;-44
2022/04/12 10:11:43;;;;;;;5.05;1.98;;;;;;;;;;10411160;28;20109;-41
2022/04/12 10:16:45;;;;;;;5.90;2.03;;;;;;;;;;10415126;28;20041;-42
2022/04/12 10:21:45;;;;;;;3.97;1.52;;;;;;;;;;10418480;28;20064;-45
2022/04/12 10:26:47;;;;;;;3.47;1.85;;;;;;;;;;10413100;28;20507;-41
2022/04/12 10:32:05;;;;;;;4.22;1.75;;;;;;;;;;10397521;28;20490;-42
2022/04/12 10:37:10;;;;;;;3.67;1.63;;;;;;;;;;10412584;28;20025;-41
2022/04/12 10:42:17;;;;;;;5.30;1.90;;;;;;;;;;10416091;28;20068;-41
2022/04/12 10:47:36;;;;;;;1.83;1.40;;;;;;;;;;10435420;28;20041;-41
2022/04/12 10:52:45;;;;;;;3.55;1.83;;;;;;;;;;10420550;28;20033;-42
2022/04/12 10:57:46;;;;;;;4.68;1.70;;;;;;;;;;10415328;28;20473;-42
2022/04/12 11:02:57;;;;;;;5.57;1.70;;;;;;;;;;10415377;28;20128;-43
2022/04/12 11:08:05;;;;;;;4.35;1.80;;;;;;;;;;10435977;28;20108;-41
2022/04/12 11:13:11;;;;;;;2.47;1.70;;;;;;;;;;10454830;28;20048;-42
2022/04/12 11:18:13;;;;;;;5.40;1.83;;;;;;;;;;10451947;28;20105;-42
2022/04/12 11:23:14;;;;;;;3.35;2.00;;;;;;;;;;10469367;28;20279;-42
2022/04/12 11:28:21;;;;;;;3.63;1.65;;;;;;;;;;10475060;28;20033;-45
2022/04/12 11:33:29;;;;;;;2.38;1.70;;;;;;;;;;10467797;28;20045;-42
2022/04/12 11:38:29;;;;;;;4.90;2.10;;;;;;;;;;10415016;28;20472;-43
2022/04/12 11:43:33;;;;;;;4.03;1.90;;;;;;;;;;10418327;28;20026;-45
2022/04/12 11:48:33;;;;;;;3.05;1.80;;;;;;;;;;10414250;28;20033;-43
2022/04/12 11:53:45;;;;;;;3.83;1.98;;;;;;;;;;10431845;28;20040;-42
2022/04/12 11:58:45;;;;;;;5.20;2.33;;;;;;;;;;10434209;28;20076;-42
2022/04/12 12:03:46;;;;;;;9.75;2.45;;;;;;;;;;10431720;28;20159;-43
2022/04/12 12:08:47;;;;;;;5.43;2.20;;;;;;;;;;10432323;28;20021;-42
2022/04/12 12:13:57;;;;;;;5.00;2.03;;;;;;;;;;10450044;28;20210;-42
2022/04/12 12:18:59;;;;;;;4.00;1.67;;;;;;;;;;10422625;28;20033;-42
2022/04/12 12:24:00;;;;;;;11.75;2.25;;;;;;;;;;10411634;28;20111;-43
2022/04/12 12:29:00;;;;;;;7.78;2.00;;;;;;;;;;10442909;28;20116;-44
2022/04/12 12:34:01;;;;;;;4.55;1.83;;;;;;;;;;10418625;28;20053;-45
2022/04/12 12:39:07;;;;;;;7.57;2.35;;;;;;;;;;10421392;28;20029;-45
2022/04/12 12:44:09;;;;;;;7.90;1.77;;;;;;;;;;10451038;28;20025;-42
2022/04/12 12:49:12;;;;;;;6.05;2.38;;;;;;;;;;10439581;28;20029;-42
2022/04/12 12:54:18;;;;;;;3.47;1.88;;;;;;;;;;10419335;28;20114;-43
2022/04/12 12:59:31;;;;;;;11.15;2.67;;;;;;;;;;10405118;28;20108;-43
2022/04/12 13:04:32;;;;;;;5.38;1.88;;;;;;;;;;10405373;28;20107;-42
2022/04/12 13:09:47;;;;;;;9.27;2.40;;;;;;;;;;10425683;28;20048;-42
2022/04/12 13:14:48;;;;;;;3.65;1.90;;;;;;;;;;10408847;28;20053;-41
2022/04/12 13:19:49;;;;;;;3.72;1.80;;;;;;;;;;10408701;28;20479;-42
2022/04/12 13:24:49;;;;;;;13.68;1.95;;;;;;;;;;10418470;28;20183;-42
2022/04/12 13:29:51;;;;;;;7.65;2.63;;;;;;;;;;10411376;28;20045;-42
2022/04/12 13:34:52;;;;;;;4.53;2.13;;;;;;;;;;10405483;28;20519;-45
2022/04/12 13:39:53;;;;;;;4.28;2.17;;;;;;;;;;10411402;28;20084;-43
2022/04/12 13:44:55;;;;;;;6.75;1.80;;;;;;;;;;10443062;28;20098;-48
2022/04/12 13:49:56;;;;;;;5.35;2.13;;;;;;;;;;10421672;28;20073;-43
2022/04/12 13:54:57;;;;;;;4.78;1.88;;;;;;;;;;10431934;28;20030;-48
2022/04/12 13:59:57;;;;;;;5.25;2.10;;;;;;;;;;10418374;28;20060;-43
2022/04/12 14:04:58;;;;;;;5.00;2.30;;;;;;;;;;10413160;28;20033;-42
2022/04/12 14:09:58;;;;;;;8.65;2.15;;;;;;;;;;10422573;28;20033;-42
2022/04/12 14:14:59;;;;;;;7.50;2.08;;;;;;;;;;10455045;28;20504;-47
2022/04/12 14:20:00;;;;;;;5.43;1.88;;;;;;;;;;10427902;28;20029;-43
2022/04/12 14:25:00;;;;;;;9.35;1.98;;;;;;;;;;10462957;28;20039;-42
2022/04/12 14:30:01;;;;;;;2.55;1.50;;;;;;;;;;10448534;28;20048;-44
2022/04/12 14:35:02;;;;;;;2.95;1.90;;;;;;;;;;10460922;28;20056;-42
2022/04/12 14:40:04;;;;;;;4.97;1.52;;;;;;;;;;10443876;28;20025;-43
2022/04/12 14:45:06;;;;;;;6.18;1.95;;;;;;;;;;10448635;28;20025;-42
2022/04/12 14:50:07;;;;;;;4.13;1.70;;;;;;;;;;10428906;28;20060;-41
2022/04/12 14:55:09;;;;;;;3.47;1.83;;;;;;;;;;10450073;28;20085;-44
2022/04/12 15:00:11;;;;;;;2.78;1.90;;;;;;;;;;10443844;28;20022;-42
2022/04/12 15:05:11;;;;;;;5.93;2.10;;;;;;;;;;10413994;28;20252;-43
2022/04/12 15:10:12;;;;;;;2.80;1.70;;;;;;;;;;10412660;28;20476;-44
2022/04/12 15:15:13;;;;;;;5.70;1.98;;;;;;;;;;10412371;28;20048;-43
2022/04/12 15:20:14;;;;;;;4.40;2.22;;;;;;;;;;10416899;28;20041;-42
2022/04/12 15:25:15;;;;;;;5.47;2.42;;;;;;;;;;10414669;28;20048;-43
2022/04/12 15:30:15;;;;;;;3.38;1.80;;;;;;;;;;10438130;28;20025;-42
2022/04/12 15:35:16;;;;;;;4.80;2.10;;;;;;;;;;10447899;28;20531;-44
2022/04/12 15:40:20;;;;;;;3.60;1.42;;;;;;;;;;10426913;28;20033;-42
2022/04/12 15:45:21;;;;;;;2.97;1.77;;;;;;;;;;10445215;28;20048;-42
2022/04/12 15:50:22;;;;;;;3.40;1.95;;;;;;;;;;10438479;28;20167;-47
2022/04/12 15:55:23;;;;;;;4.30;1.77;;;;;;;;;;10427370;28;20060;-43
2022/04/12 16:00:25;;;;;;;2.53;1.70;;;;;;;;;;10432609;28;20079;-42
2022/04/12 16:05:25;;;;;;;7.65;1.92;;;;;;;;;;10409580;28;20060;-44
2022/04/12 16:10:28;;;;;;;2.30;1.75;;;;;;;;;;10422592;28;20511;-42
2022/04/12 16:15:29;;;;;;;4.07;1.92;;;;;;;;;;10436808;28;20091;-41
2022/04/12 16:20:30;;;;;;;2.25;1.80;;;;;;;;;;10411105;28;20040;-43
2022/04/12 16:25:31;;;;;;;4.45;1.73;;;;;;;;;;10438092;28;20032;-42
2022/04/12 16:30:31;;;;;;;4.40;1.67;;;;;;;;;;10423342;28;20029;-41
2022/04/12 16:35:32;;;;;;;1.88;1.60;;;;;;;;;;10422096;28;20037;-42
2022/04/12 16:40:34;;;;;;;3.58;1.90;;;;;;;;;;10420011;28;20032;-45
2022/04/12 16:45:34;;;;;;;2.03;1.42;;;;;;;;;;10438926;28;20499;-42
2022/04/12 16:50:35;;;;;;;2.25;1.45;;;;;;;;;;10436364;28;20052;-43
